Time;durP1;ratioP1;P1;durP2;ratioP2;P2;SDS_P1;SDS_P2;PMS_P1;PMS_P2;Temp;Humidity;BMP_temperature;BMP_pressure;BME280_temperature;BME280_humidity;BME280_pressure;Samples;Min_cycle;Max_cycle;Signal;HPM_P1;HPM_P2
2023/01/11 00:01:18;;;;;;;0.30;0.20;;;;;;;10.77;94.94;100031.13;8383302;28;20051;-62
2023/01/11 00:05:18;;;;;;;0.20;0.20;;;;;;;10.80;94.84;100030.84;8382471;28;20037;-61
2023/01/11 00:09:19;;;;;;;0.10;0.10;;;;;;;10.89;94.54;100008.28;8382493;28;20032;-58
2023/01/11 00:13:19;;;;;;;0.20;0.10;;;;;;;10.93;95.37;100023.22;8381625;28;20116;-61
2023/01/11 00:17:19;;;;;;;0.20;0.10;;;;;;;11.02;94.73;100026.81;8383079;28;20151;-62
2023/01/11 00:21:21;;;;;;;0.32;0.10;;;;;;;11.15;94.02;100017.31;8389586;28;20502;-56
2023/01/11 00:25:21;;;;;;;1.65;0.20;;;;;;;11.12;94.95;100004.09;8385454;28;20052;-56
2023/01/11 00:29:22;;;;;;;0.68;0.30;;;;;;;11.31;94.37;99981.41;8388178;28;20417;-57
2023/01/11 00:33:22;;;;;;;0.55;0.13;;;;;;;11.48;93.95;99992.19;8389254;28;20067;-56
2023/01/11 00:37:23;;;;;;;0.10;0.10;;;;;;;11.43;94.08;99994.53;8387795;28;20063;-56
2023/01/11 00:50:04;;;;;;;0.63;0.20;;;;;;;11.64;93.72;99995.03;8385924;28;20504;-57
2023/01/11 00:54:05;;;;;;;0.32;0.17;;;;;;;11.71;93.48;99990.66;8386478;28;20044;-57
2023/01/11 00:58:05;;;;;;;0.20;0.10;;;;;;;11.79;93.90;99988.00;8383129;28;20041;-57
2023/01/11 01:02:07;;;;;;;0.20;0.10;;;;;;;11.96;92.40;99979.97;8387399;28;20043;-56
2023/01/11 01:06:07;;;;;;;0.10;0.10;;;;;;;12.02;92.39;99976.59;8387995;28;20044;-56
2023/01/11 01:10:09;;;;;;;0.43;0.20;;;;;;;12.07;92.44;99974.25;8387069;28;20059;-56
2023/01/11 01:14:44;;;;;;;0.50;0.10;;;;;;;12.03;92.82;99979.16;8383910;28;20044;-57
2023/01/11 01:18:32;;;;;;;0.25;0.10;;;;;;;12.19;92.06;99962.94;8385871;28;20473;-57
2023/01/11 01:22:33;;;;;;;1.02;0.22;;;;;;;12.16;92.13;99982.25;8385622;28;20604;-56
2023/01/11 01:26:33;;;;;;;0.10;0.10;;;;;;;12.02;93.18;99976.59;8386907;28;20036;-56
2023/01/11 01:30:34;;;;;;;0.20;0.10;;;;;;;12.01;93.12;99974.91;8384500;28;20497;-57
2023/01/11 01:34:36;;;;;;;0.15;0.10;;;;;;;11.93;93.69;99979.25;8384683;28;20036;-60
2023/01/11 01:38:36;;;;;;;0.20;0.20;;;;;;;11.86;94.31;99964.69;8386190;28;20406;-61
2023/01/11 01:42:37;;;;;;;0.10;0.10;;;;;;;11.93;94.16;99967.59;8385283;28;20044;-60
2023/01/11 01:46:37;;;;;;;0.17;0.10;;;;;;;11.90;94.62;99979.59;8384996;28;20119;-57
2023/01/11 01:50:45;;;;;;;0.30;0.10;;;;;;;11.91;94.88;99975.03;8386668;28;20124;-55
2023/01/11 01:54:48;;;;;;;0.00;0.00;;;;;;;11.86;94.99;99967.38;8382764;28;20039;-55
2023/01/11 01:58:56;;;;;;;0.20;0.10;;;;;;;11.82;95.88;99976.00;8383138;28;20040;-57
2023/01/11 02:02:59;;;;;;;0.25;0.10;;;;;;;11.73;96.05;99972.41;8386097;28;20576;-56
2023/01/11 02:07:03;;;;;;;0.10;0.10;;;;;;;11.73;96.38;99967.00;8384537;28;20128;-56
2023/01/11 02:11:28;;;;;;;0.10;0.10;;;;;;;11.77;96.53;99967.50;8386023;28;20047;-55
2023/01/11 02:15:27;;;;;;;0.52;0.13;;;;;;;11.71;96.93;99963.59;8380075;28;20052;-55
2023/01/11 02:24:11;;;;;;;0.10;0.10;;;;;;;11.89;96.34;99960.78;8357200;28;21110;-55
2023/01/11 02:28:22;;;;;;;0.20;0.13;;;;;;;12.06;96.94;99940.03;8335908;28;20123;-55
2023/01/11 02:32:36;;;;;;;0.10;0.10;;;;;;;12.24;95.46;99948.91;8348327;28;20087;-55
2023/01/11 02:37:01;;;;;;;0.10;0.10;;;;;;;12.46;94.41;99926.59;8351987;28;20037;-55
2023/01/11 02:41:14;;;;;;;0.20;0.10;;;;;;;12.59;93.65;99932.38;8351184;28;20494;-57
2023/01/11 02:49:40;;;;;;;0.15;0.10;;;;;;;12.68;94.74;99915.94;8345679;27;20391;-55
2023/01/11 02:53:46;;;;;;;0.10;0.10;;;;;;;12.69;96.24;99911.38;8343151;28;20041;-59
2023/01/11 02:57:48;;;;;;;0.32;0.10;;;;;;;12.62;97.79;99915.75;8372591;28;20249;-55
2023/01/11 03:01:51;;;;;;;0.10;0.10;;;;;;;12.69;97.62;99911.38;8340673;28;20391;-55
2023/01/11 03:05:56;;;;;;;0.10;0.10;;;;;;;12.73;98.17;99891.03;8341562;28;20048;-55
2023/01/11 03:10:29;;;;;;;0.10;0.10;;;;;;;12.87;96.93;99887.66;8342853;28;20449;-61
2023/01/11 03:19:31;;;;;;;0.10;0.10;;;;;;;12.93;97.09;99886.97;8347057;27;20399;-59
2023/01/11 03:23:51;;;;;;;0.30;0.10;;;;;;;12.98;97.00;99884.56;8373042;28;20149;-60
2023/01/11 03:28:01;;;;;;;0.00;0.00;;;;;;;13.03;96.85;99882.22;8376757;28;20036;-60
2023/01/11 03:32:28;;;;;;;0.00;0.00;;;;;;;13.08;96.64;99879.81;8377581;28;20577;-59
2023/01/11 03:36:35;;;;;;;0.00;0.00;;;;;;;13.06;96.88;99877.31;8376047;28;20375;-55
2023/01/11 03:40:43;;;;;;;0.10;0.10;;;;;;;13.07;97.15;99883.56;8376739;28;20048;-55
2023/01/11 03:44:48;;;;;;;0.10;0.10;;;;;;;13.10;97.50;99880.50;8375304;28;20461;-56
2023/01/11 03:49:04;;;;;;;0.00;0.00;;;;;;;12.98;100.00;99879.13;8344694;28;20414;-55
2023/01/11 03:53:07;;;;;;;0.28;0.10;;;;;;;12.73;100.00;99867.47;8339741;28;20041;-56
2023/01/11 03:57:16;;;;;;;1.08;0.03;;;;;;;12.71;100.00;99876.78;8342113;28;20037;-56
2023/01/11 04:01:17;;;;;;;0.10;0.10;;;;;;;12.65;100.00;99880.16;8375672;28;20405;-55
2023/01/11 04:05:17;;;;;;;0.55;0.00;;;;;;;12.57;100.00;99880.19;8350684;28;20033;-55
2023/01/11 04:09:18;;;;;;;1.00;0.20;;;;;;;12.52;100.00;99871.69;8343346;28;20095;-56
2023/01/11 04:13:18;;;;;;;0.20;0.10;;;;;;;12.49;100.00;99866.59;8343523;28;20041;-57
2023/01/11 04:17:18;;;;;;;0.00;0.00;;;;;;;12.41;100.00;99863.91;8342489;28;20045;-57
2023/01/11 04:21:19;;;;;;;0.30;0.00;;;;;;;12.42;100.00;99862.88;8343354;28;20160;-55
2023/01/11 04:25:19;;;;;;;0.55;0.00;;;;;;;12.32;100.00;99859.50;8341972;28;20041;-56
2023/01/11 04:29:20;;;;;;;1.75;0.10;;;;;;;12.27;100.00;99853.72;8325739;28;20042;-55
2023/01/11 04:33:20;;;;;;;0.40;0.30;;;;;;;12.26;100.00;99860.16;8336258;28;20057;-55
2023/01/11 04:37:20;;;;;;;0.45;0.45;;;;;;;12.21;100.00;99855.25;8319605;28;20181;-55
2023/01/11 04:42:23;;;;;;;1.55;0.10;;;;;;;12.18;100.00;99860.13;8319940;28;20049;-55
2023/01/11 04:45:41;;;;;;;0.10;0.10;;;;;;;12.15;100.00;99857.75;8319597;28;20495;-56
2023/01/11 04:49:42;;;;;;;0.25;0.10;;;;;;;12.18;100.00;99857.44;8319974;28;20489;-55
2023/01/11 04:53:45;;;;;;;0.20;0.10;;;;;;;12.19;100.00;99849.13;8321032;28;20042;-56
2023/01/11 04:57:46;;;;;;;0.30;0.10;;;;;;;12.23;100.00;99844.25;8319185;28;20041;-56
2023/01/11 05:01:46;;;;;;;0.00;0.00;;;;;;;12.21;100.00;99840.84;8320026;28;20041;-55
2023/01/11 05:05:57;;;;;;;0.10;0.10;;;;;;;12.23;100.00;99847.78;8319858;28;20049;-55
2023/01/11 05:09:57;;;;;;;0.10;0.10;;;;;;;12.28;100.00;99836.44;8318030;28;20076;-55
2023/01/11 05:13:58;;;;;;;0.10;0.10;;;;;;;12.24;100.00;99835.09;8350410;28;20494;-56
2023/01/11 05:17:59;;;;;;;0.00;0.00;;;;;;;12.29;100.00;99840.84;8319128;28;20088;-55
2023/01/11 05:21:59;;;;;;;1.10;0.20;;;;;;;12.30;100.00;99851.53;8309710;28;20498;-56
2023/01/11 05:26:00;;;;;;;0.00;0.00;;;;;;;12.39;100.00;99844.25;8315428;28;20045;-56
2023/01/11 05:30:01;;;;;;;0.22;0.00;;;;;;;12.48;100.00;99845.94;8310618;28;20041;-56
2023/01/11 05:34:02;;;;;;;0.80;0.00;;;;;;;12.40;100.00;99840.50;8313785;28;20056;-56
2023/01/11 05:38:02;;;;;;;0.00;0.00;;;;;;;12.42;100.00;99835.78;8313257;28;20045;-55
2023/01/11 05:42:03;;;;;;;0.03;0.00;;;;;;;12.41;100.00;99825.97;8312203;28;20132;-55
2023/01/11 05:46:03;;;;;;;0.98;0.10;;;;;;;12.40;100.00;99835.09;8315393;28;20132;-57
2023/01/11 05:50:04;;;;;;;0.00;0.00;;;;;;;12.44;100.00;99839.19;8309012;28;20037;-55
2023/01/11 05:54:09;;;;;;;0.20;0.10;;;;;;;12.46;100.00;99821.72;8314537;28;20042;-57
2023/01/11 05:58:09;;;;;;;1.45;0.10;;;;;;;12.51;100.00;99832.06;8345457;28;20064;-57
2023/01/11 06:02:10;;;;;;;0.13;0.13;;;;;;;12.49;100.00;99823.22;8347856;28;20049;-56
2023/01/11 06:06:10;;;;;;;1.20;0.10;;;;;;;12.46;100.00;99823.56;8344614;28;20045;-56
2023/01/11 06:10:11;;;;;;;0.00;0.00;;;;;;;12.49;100.00;99807.81;8348175;28;20044;-56
2023/01/11 06:14:11;;;;;;;0.10;0.10;;;;;;;12.49;100.00;99817.81;8333732;28;20041;-56
2023/01/11 06:18:12;;;;;;;1.00;0.10;;;;;;;12.50;100.00;99814.09;8310971;28;20132;-55
2023/01/11 06:22:12;;;;;;;0.00;0.00;;;;;;;12.46;100.00;99824.44;8314183;28;20491;-56
2023/01/11 06:26:15;;;;;;;0.10;0.10;;;;;;;12.44;100.00;99825.63;8311421;28;20059;-56
2023/01/11 06:30:16;;;;;;;0.10;0.10;;;;;;;12.38;100.00;99842.56;8332003;28;20943;-55
2023/01/11 06:34:16;;;;;;;0.30;0.13;;;;;;;12.41;100.00;99842.22;8343484;28;20064;-56
2023/01/11 06:38:18;;;;;;;0.10;0.10;;;;;;;12.38;100.00;99846.09;8340869;28;20052;-55
2023/01/11 06:42:18;;;;;;;0.22;0.10;;;;;;;12.36;100.00;99845.44;8342137;28;20154;-60
2023/01/11 06:46:19;;;;;;;0.15;0.10;;;;;;;12.42;100.00;99844.75;8341303;28;20056;-58
2023/01/11 06:50:20;;;;;;;0.20;0.15;;;;;;;12.40;100.00;99851.34;8348483;28;20106;-60
2023/01/11 06:54:23;;;;;;;0.50;0.10;;;;;;;12.41;100.00;99856.59;8349127;28;20437;-59
2023/01/11 06:58:24;;;;;;;0.52;0.22;;;;;;;12.48;100.00;99864.91;8347368;28;20123;-60
2023/01/11 07:02:25;;;;;;;0.20;0.20;;;;;;;12.48;100.00;99867.63;8331952;28;20256;-55
2023/01/11 07:06:28;;;;;;;0.43;0.22;;;;;;;12.57;100.00;99877.47;8336251;28;20512;-57
2023/01/11 07:10:28;;;;;;;1.45;0.32;;;;;;;12.68;100.00;99877.97;8321348;28;20461;-55
2023/01/11 07:14:29;;;;;;;0.32;0.20;;;;;;;12.75;100.00;99891.72;8332901;28;20115;-56
2023/01/11 07:18:30;;;;;;;0.80;0.15;;;;;;;12.82;100.00;99884.59;8346766;28;20040;-55
2023/01/11 07:22:34;;;;;;;0.30;0.05;;;;;;;12.90;100.00;99900.88;8354446;28;20045;-56
2023/01/11 07:26:40;;;;;;;0.93;0.10;;;;;;;12.85;100.00;99916.78;8354293;28;20032;-55
2023/01/11 07:30:40;;;;;;;0.35;0.10;;;;;;;12.84;100.00;99909.69;8337527;28;20116;-55
2023/01/11 07:34:40;;;;;;;1.30;0.20;;;;;;;12.83;100.00;99916.09;8340158;28;20038;-55
2023/01/11 07:38:41;;;;;;;0.10;0.10;;;;;;;12.78;100.00;99932.88;8328566;28;20048;-55
2023/01/11 07:43:18;;;;;;;1.42;0.10;;;;;;;12.68;100.00;99948.47;8350610;28;20684;-56
2023/01/11 07:47:06;;;;;;;0.30;0.08;;;;;;;12.65;100.00;99958.81;8336342;28;20102;-55
2023/01/11 07:51:07;;;;;;;2.55;0.15;;;;;;;12.65;100.00;99959.66;8333597;28;20114;-55
2023/01/11 07:55:07;;;;;;;0.13;0.10;;;;;;;12.57;100.00;99967.81;8333280;28;20041;-55
2023/01/11 07:59:08;;;;;;;1.38;0.20;;;;;;;12.48;100.00;99962.53;8344976;28;20461;-56
2023/01/11 08:03:09;;;;;;;0.95;0.38;;;;;;;12.46;100.00;99970.81;8344844;28;20441;-54
2023/01/11 08:07:10;;;;;;;1.90;0.60;;;;;;;12.41;100.00;99969.63;8356262;28;20040;-55
2023/01/11 08:15:34;;;;;;;1.52;0.50;;;;;;;12.34;100.00;99949.59;8358256;28;20481;-56
2023/01/11 08:19:35;;;;;;;2.63;0.80;;;;;;;12.30;100.00;99945.53;8358461;28;20115;-57
2023/01/11 08:23:35;;;;;;;3.97;0.70;;;;;;;12.25;100.00;99964.13;8358604;28;20109;-56
2023/01/11 08:27:35;;;;;;;1.52;0.50;;;;;;;12.19;100.00;99972.94;8352940;28;20086;-55
2023/01/11 08:31:36;;;;;;;1.70;0.50;;;;;;;12.14;100.00;99986.13;8349372;28;20041;-57
2023/01/11 08:35:38;;;;;;;1.60;0.50;;;;;;;12.11;100.00;99991.88;8349498;28;20052;-56
2023/01/11 08:39:39;;;;;;;2.42;0.75;;;;;;;12.15;100.00;100009.50;8359554;28;20045;-56
2023/01/11 08:43:40;;;;;;;3.85;1.30;;;;;;;12.23;100.00;100023.09;8359139;28;20041;-57
2023/01/11 08:47:41;;;;;;;3.97;1.13;;;;;;;12.26;100.00;100022.78;8357462;28;20037;-54
2023/01/11 08:51:41;;;;;;;2.65;1.10;;;;;;;12.22;100.00;100026.81;8358786;28;20132;-55
2023/01/11 08:55:43;;;;;;;5.72;1.27;;;;;;;12.19;100.00;100037.97;8358321;28;20666;-55
2023/01/11 08:59:44;;;;;;;6.57;1.10;;;;;;;12.16;100.00;100049.13;8351854;28;20067;-56
2023/01/11 09:03:44;;;;;;;9.00;1.88;;;;;;;12.18;100.00;100057.97;8328656;28;20033;-57
2023/01/11 09:07:45;;;;;;;7.57;2.00;;;;;;;12.23;100.00;100056.44;8358014;28;20037;-56
2023/01/11 09:12:01;;;;;;;8.30;2.90;;;;;;;12.28;100.00;100055.97;8358818;28;20120;-61
2023/01/11 09:16:02;;;;;;;4.32;1.92;;;;;;;12.29;100.00;100044.13;8350872;28;20132;-60
2023/01/11 09:20:03;;;;;;;8.75;2.35;;;;;;;12.29;100.00;100053.09;8370169;28;20510;-61
2023/01/11 09:24:04;;;;;;;8.27;2.63;;;;;;;12.33;100.00;100067.19;8358355;28;20045;-61
2023/01/11 09:28:04;;;;;;;11.68;2.13;;;;;;;12.37;100.00;100063.97;8355654;28;20521;-60
2023/01/11 09:32:05;;;;;;;12.52;2.53;;;;;;;12.34;100.00;100058.03;8353260;28;20037;-61
2023/01/11 09:36:06;;;;;;;11.43;1.90;;;;;;;12.26;100.00;100077.81;8340202;28;20069;-59
2023/01/11 09:40:14;;;;;;;12.60;2.35;;;;;;;12.25;100.00;100086.97;8311917;28;20041;-58
2023/01/11 09:44:22;;;;;;;13.18;2.63;;;;;;;12.23;100.00;100088.16;8323958;28;20128;-61
2023/01/11 09:48:35;;;;;;;14.15;2.72;;;;;;;12.21;100.00;100090.16;8324409;28;20048;-61
2023/01/11 09:52:39;;;;;;;16.63;3.13;;;;;;;12.23;100.00;100110.66;8323840;28;20060;-57
2023/01/11 09:56:50;;;;;;;14.40;4.50;;;;;;;12.26;100.00;100137.44;8315945;28;20033;-58
2023/01/11 10:05:50;;;;;;;16.35;3.13;;;;;;;12.19;100.00;100157.19;8346562;27;20398;-60
2023/01/11 10:10:12;;;;;;;25.67;3.65;;;;;;;12.12;100.00;100151.59;8342994;28;20041;-61
2023/01/11 10:14:49;;;;;;;22.30;4.18;;;;;;;12.06;100.00;100167.63;8286766;28;20391;-60
2023/01/11 10:19:08;;;;;;;20.95;3.97;;;;;;;12.06;100.00;100179.31;8327747;28;20046;-59
2023/01/11 10:23:20;;;;;;;16.65;3.50;;;;;;;12.01;100.00;100186.22;8317342;28;20042;-60
2023/01/11 10:27:48;;;;;;;14.40;3.72;;;;;;;11.98;100.00;100191.97;8316335;28;20582;-61
2023/01/11 10:32:12;;;;;;;12.88;2.97;;;;;;;11.99;100.00;100193.66;8311035;28;20030;-61
2023/01/11 10:37:39;;;;;;;21.95;3.20;;;;;;;12.02;100.00;100188.78;8320728;28;20071;-59
2023/01/11 10:41:11;;;;;;;18.52;3.17;;;;;;;11.99;100.00;100194.53;8305984;28;20120;-61
2023/01/11 10:45:17;;;;;;;17.77;4.05;;;;;;;11.95;99.65;100203.13;8324455;28;20548;-61
2023/01/11 10:49:42;;;;;;;12.40;3.33;;;;;;;11.98;99.05;100200.09;8313603;28;20034;-60
2023/01/11 10:58:39;;;;;;;18.65;3.55;;;;;;;12.07;96.49;100191.03;8276924;28;20382;-57
2023/01/11 11:02:56;;;;;;;18.33;3.67;;;;;;;11.90;96.28;100190.88;8281223;28;20038;-61
2023/01/11 11:07:13;;;;;;;18.15;3.17;;;;;;;11.72;96.71;100198.16;8284698;28;20121;-61
2023/01/11 11:11:21;;;;;;;18.25;3.53;;;;;;;11.74;97.10;100209.69;8277618;28;20384;-61
2023/01/11 11:15:30;;;;;;;18.33;3.63;;;;;;;11.80;96.42;100211.78;8284614;28;20133;-60
2023/01/11 11:19:32;;;;;;;19.55;3.50;;;;;;;11.78;95.73;100224.63;8275193;28;20096;-58
2023/01/11 11:23:34;;;;;;;20.67;2.90;;;;;;;11.75;94.40;100222.22;8273298;28;20753;-61
2023/01/11 11:27:41;;;;;;;24.55;3.90;;;;;;;11.66;93.18;100222.31;8276174;28;20046;-60
2023/01/11 11:31:43;;;;;;;26.02;3.17;;;;;;;11.62;92.54;100213.66;8283705;28;20406;-61
2023/01/11 11:35:53;;;;;;;19.90;2.58;;;;;;;11.59;93.00;100219.34;8281080;28;20092;-61
2023/01/11 11:39:55;;;;;;;15.85;2.53;;;;;;;11.72;92.23;100227.94;8283747;28;20087;-58
2023/01/11 11:44:14;;;;;;;26.95;3.53;;;;;;;11.87;91.72;100222.84;8283121;28;20782;-60
2023/01/11 11:48:15;;;;;;;10.85;2.63;;;;;;;12.20;91.23;100213.13;8274870;28;20046;-61
2023/01/11 11:52:16;;;;;;;16.60;2.70;;;;;;;12.68;88.23;100219.69;8268730;28;20060;-60
2023/01/11 11:56:23;;;;;;;25.25;3.58;;;;;;;12.46;88.49;100219.41;8280913;28;20169;-60
2023/01/11 12:00:29;;;;;;;17.38;2.78;;;;;;;12.38;88.30;100227.50;8279891;28;20577;-60
2023/01/11 12:04:46;;;;;;;17.58;2.58;;;;;;;12.33;89.16;100221.69;8261508;28;20042;-60
2023/01/11 12:08:46;;;;;;;16.63;3.88;;;;;;;12.46;87.35;100213.97;8262431;28;20042;-59
2023/01/11 12:12:55;;;;;;;18.92;3.30;;;;;;;12.67;86.23;100217.16;8246839;28;20096;-61
2023/01/11 12:16:57;;;;;;;22.13;3.60;;;;;;;12.93;84.58;100217.97;8251599;28;20034;-62
2023/01/11 12:21:20;;;;;;;10.30;2.45;;;;;;;12.80;84.20;100209.41;8241033;28;20046;-57
2023/01/11 12:25:24;;;;;;;21.75;3.63;;;;;;;12.81;83.20;100219.28;8245006;28;20041;-57
2023/01/11 12:29:55;;;;;;;13.93;2.40;;;;;;;13.05;83.49;100230.28;8258829;28;20495;-57
2023/01/11 12:38:19;;;;;;;19.08;3.13;;;;;;;12.77;82.06;100209.75;8278413;28;20923;-54
2023/01/11 12:42:42;;;;;;;17.98;2.45;;;;;;;12.60;78.17;100216.94;8279617;28;20038;-55
2023/01/11 12:47:13;;;;;;;19.20;2.10;;;;;;;12.64;78.52;100226.47;8272085;28;20066;-55
2023/01/11 12:51:29;;;;;;;9.07;1.77;;;;;;;12.74;78.59;100221.78;8262611;28;20138;-55
2023/01/11 12:55:42;;;;;;;16.30;2.83;;;;;;;12.80;80.82;100222.97;8268824;28;20406;-56
2023/01/11 13:00:22;;;;;;;15.45;2.00;;;;;;;12.71;79.01;100213.94;8259422;28;20039;-60
2023/01/11 13:04:41;;;;;;;12.13;2.38;;;;;;;12.79;78.69;100237.56;8282652;28;20111;-60
2023/01/11 13:13:18;;;;;;;10.25;2.22;;;;;;;12.62;76.53;100249.31;8312751;27;20850;-61
2023/01/11 13:17:30;;;;;;;17.38;2.22;;;;;;;12.61;77.69;100261.19;8316526;28;20042;-60
2023/01/11 13:21:35;;;;;;;19.40;2.80;;;;;;;12.58;77.44;100256.06;8317616;28;20042;-59
2023/01/11 13:25:40;;;;;;;14.05;2.67;;;;;;;12.50;79.11;100264.19;8317127;28;20489;-60
2023/01/11 13:29:44;;;;;;;12.07;2.30;;;;;;;12.51;78.59;100260.44;8313170;28;20517;-59
2023/01/11 13:33:52;;;;;;;12.27;2.70;;;;;;;12.52;78.57;100259.44;8309101;28;20565;-61
2023/01/11 13:38:04;;;;;;;25.40;8.00;;;;;;;12.63;79.37;100264.59;8316014;28;20136;-61
2023/01/11 13:42:13;;;;;;;25.17;2.13;;;;;;;12.56;77.89;100260.84;8302148;28;20363;-61
2023/01/11 13:46:23;;;;;;;15.63;2.38;;;;;;;12.67;76.89;100261.41;8294082;28;20491;-61
2023/01/11 13:50:32;;;;;;;22.27;2.92;;;;;;;12.62;76.14;100262.88;8295017;28;20391;-61
2023/01/11 13:54:44;;;;;;;20.15;3.78;;;;;;;12.65;76.11;100265.28;8294119;28;20093;-57
2023/01/11 13:58:54;;;;;;;25.83;3.90;;;;;;;12.52;76.67;100264.84;8282648;28;20048;-61
2023/01/11 14:03:28;;;;;;;14.15;2.22;;;;;;;12.39;78.09;100277.97;8304043;28;20076;-60
2023/01/11 14:08:05;;;;;;;18.88;3.35;;;;;;;12.42;76.77;100283.09;8315394;28;20042;-60
2023/01/11 14:12:29;;;;;;;11.75;2.10;;;;;;;12.20;78.92;100279.00;8315196;28;20047;-57
2023/01/11 14:16:56;;;;;;;15.88;2.30;;;;;;;12.11;80.59;100293.53;8296980;28;20038;-58
2023/01/11 14:21:29;;;;;;;19.77;3.90;;;;;;;12.20;80.50;100299.84;8304509;28;20042;-56
2023/01/11 14:25:37;;;;;;;20.65;3.42;;;;;;;12.24;80.92;100293.97;8269411;28;20228;-60
2023/01/11 14:29:58;;;;;;;20.30;2.67;;;;;;;12.28;80.79;100300.78;8293020;28;20042;-60
2023/01/11 14:34:38;;;;;;;18.38;2.90;;;;;;;12.21;81.33;100304.25;8289979;28;20154;-60
2023/01/11 14:39:09;;;;;;;20.17;2.50;;;;;;;12.12;81.38;100302.47;8283553;28;20038;-56
2023/01/11 14:43:32;;;;;;;14.75;2.60;;;;;;;12.10;80.42;100315.34;8257700;28;20434;-60
2023/01/11 14:52:07;;;;;;;13.30;2.40;;;;;;;12.08;79.72;100333.63;8320040;28;20476;-55
2023/01/11 14:56:46;;;;;;;14.88;2.30;;;;;;;12.14;80.11;100343.84;8315024;28;20042;-56
2023/01/11 15:01:03;;;;;;;16.80;2.97;;;;;;;12.06;79.43;100330.19;8316660;28;20037;-56
2023/01/11 15:05:06;;;;;;;22.48;2.88;;;;;;;12.09;79.25;100330.75;8307184;28;20064;-57
2023/01/11 15:09:44;;;;;;;17.60;2.75;;;;;;;11.93;81.91;100323.31;8316181;28;20052;-55
2023/01/11 15:13:55;;;;;;;20.42;2.50;;;;;;;11.86;83.47;100330.34;8303672;28;20592;-57
2023/01/11 15:18:27;;;;;;;17.80;2.90;;;;;;;11.84;83.07;100326.09;8304273;28;20856;-56
2023/01/11 15:22:28;;;;;;;22.55;3.13;;;;;;;11.64;84.10;100335.34;8309850;28;20038;-56
2023/01/11 15:26:29;;;;;;;18.27;2.67;;;;;;;11.58;82.94;100333.19;8295361;28;20053;-55
2023/01/11 15:34:45;;;;;;;10.57;3.00;;;;;;;11.34;82.80;100339.19;8316752;28;20397;-54
2023/01/11 15:39:06;;;;;;;12.68;2.25;;;;;;;11.29;82.71;100346.88;8312049;28;20037;-55
2023/01/11 15:43:40;;;;;;;16.35;2.42;;;;;;;11.31;81.23;100354.84;8293232;28;20041;-56
2023/01/11 15:48:20;;;;;;;12.88;2.35;;;;;;;11.20;81.53;100341.53;8282175;28;20038;-54
2023/01/11 15:52:56;;;;;;;15.90;2.60;;;;;;;11.05;82.58;100359.25;8275335;28;20522;-55
2023/01/11 15:57:38;;;;;;;17.17;3.15;;;;;;;10.89;83.24;100359.84;8297978;28;20080;-55
2023/01/11 16:06:56;;;;;;;14.95;2.33;;;;;;;10.93;83.22;100357.72;8342988;27;20771;-59
2023/01/11 16:11:11;;;;;;;22.88;2.97;;;;;;;10.89;83.25;100364.44;8301416;28;20049;-57
2023/01/11 16:19:33;;;;;;;14.45;2.60;;;;;;;10.96;82.86;100363.69;8312810;28;20383;-60
2023/01/11 16:23:34;;;;;;;19.48;2.95;;;;;;;11.03;83.43;100372.91;8311572;28;21279;-58
2023/01/11 16:27:35;;;;;;;18.35;2.75;;;;;;;11.04;83.43;100374.59;8280721;28;20563;-59
2023/01/11 16:31:53;;;;;;;21.65;2.90;;;;;;;11.02;84.40;100378.47;8282632;28;20030;-53
2023/01/11 16:36:12;;;;;;;13.43;2.90;;;;;;;10.99;84.41;100395.84;8280070;28;20049;-58
2023/01/11 16:40:16;;;;;;;17.38;3.08;;;;;;;11.02;84.17;100403.69;8270292;28;20322;-59
2023/01/11 16:44:38;;;;;;;13.45;1.88;;;;;;;11.05;83.80;100406.09;8276792;28;20038;-58
2023/01/11 16:48:38;;;;;;;18.20;2.40;;;;;;;11.00;84.43;100421.91;8269688;28;20047;-57
2023/01/11 16:52:46;;;;;;;19.70;2.10;;;;;;;10.95;84.26;100413.34;8272070;28;20153;-58
2023/01/11 16:56:48;;;;;;;12.50;2.05;;;;;;;10.92;83.91;100440.69;8281061;28;20046;-58
2023/01/11 17:01:10;;;;;;;10.70;1.85;;;;;;;10.83;82.50;100446.13;8268986;28;20145;-59
2023/01/11 17:05:25;;;;;;;10.00;2.15;;;;;;;10.68;82.03;100459.25;8268683;28;20046;-58
2023/01/11 17:09:28;;;;;;;10.80;1.75;;;;;;;10.56;81.15;100465.78;8258368;28;20042;-57
2023/01/11 17:17:41;;;;;;;9.80;1.85;;;;;;;10.47;81.12;100466.63;8316159;28;20385;-58
2023/01/11 17:22:03;;;;;;;6.32;1.65;;;;;;;10.40;80.92;100465.47;8307215;28;20423;-59
2023/01/11 17:26:03;;;;;;;9.18;1.40;;;;;;;10.37;81.09;100476.56;8310660;28;20583;-57
2023/01/11 17:30:14;;;;;;;10.23;1.77;;;;;;;10.22;81.20;100472.56;8309934;28;20258;-59
2023/01/11 17:34:22;;;;;;;6.90;1.70;;;;;;;10.07;82.25;100479.38;8311546;28;20419;-58
2023/01/11 17:38:25;;;;;;;8.13;1.75;;;;;;;10.02;82.14;100474.34;8312720;28;20038;-59
2023/01/11 17:46:47;;;;;;;5.15;0.93;;;;;;;9.85;83.69;100461.50;8301024;28;20041;-57
2023/01/11 17:50:50;;;;;;;11.02;1.33;;;;;;;9.80;83.81;100465.59;8300406;28;20038;-59
2023/01/11 17:59:30;;;;;;;13.60;2.03;;;;;;;9.81;84.78;100451.09;8308198;28;20393;-57
2023/01/11 18:03:43;;;;;;;11.02;2.08;;;;;;;9.95;83.93;100454.25;8315010;28;20148;-59
2023/01/11 18:07:48;;;;;;;9.45;1.50;;;;;;;10.09;83.68;100455.75;8308392;28;20041;-55
2023/01/11 18:11:50;;;;;;;11.23;1.55;;;;;;;10.12;83.56;100465.44;8315368;28;20554;-57
2023/01/11 18:15:51;;;;;;;14.93;1.50;;;;;;;10.18;83.23;100465.72;8311632;28;20038;-57
2023/01/11 18:19:52;;;;;;;10.07;1.88;;;;;;;10.29;82.99;100468.31;8306272;28;20045;-59
2023/01/11 18:28:25;;;;;;;14.82;2.40;;;;;;;10.36;82.22;100453.25;8350689;27;20861;-58
2023/01/11 18:32:32;;;;;;;15.63;1.70;;;;;;;10.40;81.86;100443.84;8337314;28;20048;-58
2023/01/11 18:36:33;;;;;;;14.05;2.03;;;;;;;10.36;82.42;100453.25;8345182;28;20511;-59
2023/01/11 18:40:34;;;;;;;15.95;1.80;;;;;;;10.43;82.07;100459.78;8344719;28;20373;-57
2023/01/11 18:44:36;;;;;;;14.40;2.20;;;;;;;10.46;82.04;100458.66;8362172;28;20041;-57
2023/01/11 18:48:37;;;;;;;14.65;1.83;;;;;;;10.49;82.12;100463.78;8365281;28;20045;-58
2023/01/11 18:52:37;;;;;;;16.65;2.47;;;;;;;10.47;81.92;100466.63;8328281;28;20174;-57
2023/01/11 18:56:38;;;;;;;13.70;1.95;;;;;;;10.42;82.14;100466.19;8341276;28;20128;-59
2023/01/11 19:00:40;;;;;;;13.93;2.08;;;;;;;10.56;82.03;100460.38;8344229;28;20049;-57
2023/01/11 19:04:40;;;;;;;17.55;2.28;;;;;;;10.55;82.07;100453.25;8350917;28;20041;-59
2023/01/11 19:08:40;;;;;;;12.60;2.47;;;;;;;10.53;82.00;100438.19;8333409;28;20132;-59
2023/01/11 19:12:42;;;;;;;8.10;1.50;;;;;;;10.41;82.79;100429.34;8340888;28;20405;-60
2023/01/11 19:16:42;;;;;;;17.40;2.60;;;;;;;10.43;82.40;100426.50;8332743;28;20483;-58
2023/01/11 19:20:43;;;;;;;11.93;2.42;;;;;;;10.43;83.04;100415.72;8327716;28;20415;-59
2023/01/11 19:24:43;;;;;;;11.75;2.00;;;;;;;10.41;83.00;100418.56;8340833;28;20068;-58
2023/01/11 19:28:43;;;;;;;12.80;2.03;;;;;;;10.43;82.80;100421.94;8334313;28;20103;-58
2023/01/11 19:32:49;;;;;;;14.77;2.13;;;;;;;10.50;82.27;100412.28;8345590;28;20044;-59
2023/01/11 19:36:51;;;;;;;13.18;2.65;;;;;;;10.48;82.48;100413.41;8331313;28;20507;-58
2023/01/11 19:40:51;;;;;;;13.82;2.30;;;;;;;10.55;82.40;100420.81;8323394;28;20041;-59
2023/01/11 19:44:51;;;;;;;10.73;1.70;;;;;;;10.61;82.05;100417.53;8316277;28;20140;-57
2023/01/11 19:48:52;;;;;;;12.18;1.83;;;;;;;10.71;81.31;100415.69;8312850;28;20121;-57
2023/01/11 19:52:52;;;;;;;18.45;2.17;;;;;;;10.66;81.46;100417.09;8322019;28;20069;-59
2023/01/11 19:56:53;;;;;;;9.60;1.80;;;;;;;10.51;82.11;100429.34;8322364;28;20041;-60
2023/01/11 20:00:53;;;;;;;11.45;1.88;;;;;;;10.42;82.18;100420.25;8319697;28;20045;-59
2023/01/11 20:04:54;;;;;;;13.05;1.98;;;;;;;10.49;81.82;100426.78;8316174;28;20067;-59
2023/01/11 20:08:54;;;;;;;14.15;2.55;;;;;;;10.56;81.22;100406.31;8320519;28;20049;-56
2023/01/11 20:12:55;;;;;;;13.30;2.05;;;;;;;10.52;81.11;100404.88;8321070;28;20153;-54
2023/01/11 20:16:55;;;;;;;9.63;2.50;;;;;;;10.38;82.21;100405.31;8321127;28;20069;-58
2023/01/11 20:20:56;;;;;;;9.07;1.70;;;;;;;10.22;83.10;100391.53;8318946;28;20534;-54
2023/01/11 20:24:56;;;;;;;12.82;2.00;;;;;;;10.27;82.93;100399.22;8297030;28;20041;-60